createdAt,value
2018-09-18T00:00:29.851Z,0.00
2018-09-18T00:01:29.826Z,0.00
2018-09-18T00:02:29.803Z,0.00
2018-09-18T00:03:29.774Z,0.00
2018-09-18T00:04:29.747Z,0.00
2018-09-18T00:05:29.725Z,0.00
2018-09-18T00:06:29.696Z,0.00
2018-09-18T00:07:29.669Z,0.00
2018-09-18T00:08:29.643Z,0.00
2018-09-18T00:09:29.617Z,0.00
2018-09-18T00:10:29.591Z,0.00
2018-09-18T00:11:29.569Z,0.00
2018-09-18T00:12:29.538Z,0.00
2018-09-18T00:13:29.512Z,0.00
2018-09-18T00:14:29.487Z,0.00
2018-09-18T00:15:29.461Z,0.00
2018-09-18T00:16:29.434Z,0.00
2018-09-18T00:17:29.408Z,0.00
2018-09-18T00:18:29.386Z,0.00
2018-09-18T00:19:29.357Z,0.00
2018-09-18T00:20:29.331Z,0.00
2018-09-18T00:21:29.304Z,0.00
2018-09-18T00:22:29.280Z,0.00
2018-09-18T00:23:29.456Z,0.00
2018-09-18T00:24:29.227Z,0.00
2018-09-18T00:25:29.410Z,0.00
2018-09-18T00:26:29.174Z,0.00
2018-09-18T00:27:29.148Z,0.00
2018-09-18T00:28:29.121Z,0.00
2018-09-18T00:29:29.095Z,0.00
2018-09-18T00:30:29.272Z,0.00
2018-09-18T00:31:29.043Z,0.00
2018-09-18T00:32:29.016Z,0.00
2018-09-18T00:33:28.992Z,0.00
2018-09-18T00:34:28.964Z,0.00
2018-09-18T00:35:28.938Z,0.00
2018-09-18T00:36:28.912Z,0.00
2018-09-18T00:37:28.886Z,0.00
2018-09-18T00:38:29.063Z,0.00
2018-09-18T00:39:28.833Z,0.00
2018-09-18T00:52:26.351Z,0.00
2018-09-18T00:53:25.515Z,0.00
2018-09-18T00:54:25.287Z,0.00
2018-09-18T00:55:25.259Z,0.00
2018-09-18T00:56:25.230Z,0.00
2018-09-18T00:57:25.203Z,0.00
2018-09-18T00:58:25.177Z,0.00
2018-09-18T00:59:25.149Z,0.00
2018-09-18T01:00:25.124Z,0.00
2018-09-18T01:01:25.096Z,0.00
2018-09-18T01:02:25.070Z,0.00
2018-09-18T01:03:25.043Z,0.00
2018-09-18T01:04:25.016Z,0.00
2018-09-18T01:05:24.989Z,0.00
2018-09-18T01:06:24.963Z,0.00
2018-09-18T01:07:24.936Z,0.00
2018-09-18T01:08:24.910Z,0.00
2018-09-18T01:09:24.882Z,0.00
2018-09-18T01:10:24.855Z,0.00
2018-09-18T01:11:24.830Z,0.00
2018-09-18T01:12:24.804Z,0.00
2018-09-18T01:13:24.778Z,0.00
2018-09-18T01:14:24.750Z,0.00
2018-09-18T01:15:24.724Z,0.00
2018-09-18T01:16:24.698Z,0.00
2018-09-18T01:17:24.673Z,0.00
2018-09-18T01:18:24.645Z,0.00
2018-09-18T01:19:24.619Z,0.00
2018-09-18T01:20:24.592Z,0.00
2018-09-18T01:21:24.565Z,0.00
2018-09-18T01:22:24.538Z,0.00
2018-09-18T01:23:24.512Z,0.00
2018-09-18T01:24:24.487Z,0.00
2018-09-18T01:25:24.459Z,0.00
2018-09-18T01:26:24.432Z,0.00
2018-09-18T01:27:24.407Z,0.00
2018-09-18T01:28:24.387Z,0.00
2018-09-18T01:29:24.352Z,0.00
2018-09-18T01:30:24.326Z,0.00
2018-09-18T01:31:24.299Z,0.00
2018-09-18T01:32:24.276Z,0.00
2018-09-18T01:33:24.247Z,0.00
2018-09-18T01:34:24.220Z,0.00
2018-09-18T01:35:24.195Z,0.00
2018-09-18T01:36:24.168Z,0.00
2018-09-18T01:37:24.143Z,0.00
2018-09-18T01:38:24.116Z,0.00
2018-09-18T01:39:24.092Z,0.00
2018-09-18T01:40:24.063Z,0.00
2018-09-18T01:41:24.034Z,0.00
2018-09-18T01:42:24.008Z,0.00
2018-09-18T01:43:23.982Z,0.00
2018-09-18T01:44:23.956Z,0.00
2018-09-18T01:45:23.929Z,0.00
2018-09-18T01:46:23.954Z,0.00
2018-09-18T01:47:23.877Z,0.00
2018-09-18T01:48:23.849Z,0.00
2018-09-18T01:49:23.825Z,0.00
2018-09-18T01:50:23.796Z,0.00
2018-09-18T01:51:23.770Z,0.00
2018-09-18T01:52:23.744Z,0.00
2018-09-18T01:53:23.716Z,0.00
2018-09-18T01:54:23.692Z,0.00
2018-09-18T01:55:23.664Z,0.00
2018-09-18T01:56:23.638Z,0.00
2018-09-18T01:57:23.610Z,0.00
2018-09-18T01:58:23.584Z,0.00
2018-09-18T01:59:23.562Z,0.00
2018-09-18T02:00:23.532Z,0.00
2018-09-18T02:01:23.507Z,0.00
2018-09-18T02:02:23.486Z,0.00
2018-09-18T02:03:23.452Z,0.00
2018-09-18T02:04:23.425Z,0.00
2018-09-18T02:05:23.398Z,0.00
2018-09-18T02:06:23.372Z,0.00
2018-09-18T02:07:23.347Z,0.00
2018-09-18T02:08:23.319Z,0.00
2018-09-18T02:09:23.293Z,0.00
2018-09-18T02:10:23.264Z,0.00
2018-09-18T02:11:23.239Z,0.00
2018-09-18T02:12:23.218Z,0.00
2018-09-18T02:13:23.185Z,0.00
2018-09-18T02:14:23.159Z,0.00
2018-09-18T02:15:23.134Z,0.00
2018-09-18T02:16:23.107Z,0.00
2018-09-18T02:17:23.081Z,0.00
2018-09-18T02:18:23.053Z,0.00
2018-09-18T02:19:23.027Z,0.00
2018-09-18T02:20:23.000Z,0.00
2018-09-18T02:21:22.972Z,0.00
2018-09-18T02:22:22.947Z,0.00
2018-09-18T02:23:22.923Z,0.00
2018-09-18T02:24:22.895Z,0.00
2018-09-18T02:25:22.870Z,0.00
2018-09-18T02:26:22.840Z,0.00
2018-09-18T02:27:22.814Z,0.00
2018-09-18T02:28:22.787Z,0.00
2018-09-18T02:29:22.761Z,0.00
2018-09-18T02:30:22.738Z,0.00
2018-09-18T02:31:22.708Z,0.00
2018-09-18T02:32:22.681Z,0.00
2018-09-18T02:33:22.655Z,0.00
2018-09-18T02:34:22.633Z,0.00
2018-09-18T02:35:22.601Z,0.00
2018-09-18T02:36:22.575Z,0.00
2018-09-18T02:37:22.553Z,0.00
2018-09-18T02:38:22.521Z,0.00
2018-09-18T02:39:22.495Z,0.00
2018-09-18T02:40:22.473Z,0.00
2018-09-18T02:41:22.441Z,0.00
2018-09-18T02:42:22.419Z,0.00
2018-09-18T02:43:22.388Z,0.00
2018-09-18T02:44:22.362Z,0.00
2018-09-18T02:45:22.334Z,0.00
2018-09-18T02:46:22.308Z,0.00
2018-09-18T02:47:22.283Z,0.00
2018-09-18T02:48:22.256Z,0.00
2018-09-18T02:49:22.229Z,0.00
2018-09-18T02:50:22.201Z,0.00
2018-09-18T02:51:22.177Z,0.00
2018-09-18T02:52:22.149Z,0.00
2018-09-18T02:53:22.121Z,0.00
2018-09-18T02:54:22.096Z,0.00
2018-09-18T02:55:22.069Z,0.00
2018-09-18T02:56:22.049Z,0.00
2018-09-18T02:57:22.015Z,0.00
2018-09-18T02:58:21.997Z,0.00
2018-09-18T02:59:21.963Z,0.00
2018-09-18T03:00:21.941Z,0.00
2018-09-18T03:01:21.914Z,0.00
2018-09-18T03:02:21.887Z,0.00
2018-09-18T03:03:21.857Z,0.00
2018-09-18T03:04:21.829Z,0.00
2018-09-18T03:05:21.802Z,0.00
2018-09-18T03:06:21.780Z,0.00
2018-09-18T03:07:21.749Z,0.00
2018-09-18T03:08:21.723Z,0.00
2018-09-18T03:09:21.696Z,0.00
2018-09-18T03:10:21.670Z,0.00
2018-09-18T03:11:21.753Z,0.00
2018-09-18T03:12:21.623Z,0.00
2018-09-18T03:13:21.591Z,0.00
2018-09-18T03:14:21.565Z,0.00
2018-09-18T03:15:21.537Z,0.00
2018-09-18T03:16:21.510Z,0.00
2018-09-18T03:17:21.483Z,0.00
2018-09-18T03:18:21.458Z,0.00
2018-09-18T03:19:21.431Z,0.00
2018-09-18T03:20:21.404Z,0.00
2018-09-18T03:21:21.377Z,0.00
2018-09-18T03:22:21.651Z,0.00
2018-09-18T03:23:21.323Z,0.00
2018-09-18T03:24:21.298Z,0.00
2018-09-18T03:25:21.277Z,0.00
2018-09-18T03:26:21.243Z,0.00
2018-09-18T03:27:21.246Z,0.00
2018-09-18T03:28:21.193Z,0.00
2018-09-18T03:29:21.167Z,0.00
2018-09-18T03:30:21.139Z,0.00
2018-09-18T03:31:21.114Z,0.00
2018-09-18T03:32:21.085Z,0.00
2018-09-18T03:33:21.064Z,0.00
2018-09-18T03:34:21.037Z,0.00
2018-09-18T03:35:21.007Z,0.00
2018-09-18T03:36:20.979Z,0.00
2018-09-18T03:37:20.952Z,0.00
2018-09-18T03:38:20.937Z,0.00
2018-09-18T03:39:20.900Z,0.00
2018-09-18T03:40:20.874Z,0.00
2018-09-18T03:41:20.846Z,0.00
2018-09-18T03:42:20.821Z,0.00
2018-09-18T03:43:20.794Z,0.00
2018-09-18T03:44:20.768Z,0.00
2018-09-18T03:45:20.741Z,0.00
2018-09-18T03:46:20.717Z,0.00
2018-09-18T03:47:20.688Z,0.00
2018-09-18T03:48:20.662Z,0.00
2018-09-18T03:49:20.634Z,0.00
2018-09-18T03:50:20.610Z,0.00
2018-09-18T03:51:20.586Z,0.00
2018-09-18T03:52:20.556Z,0.00
2018-09-18T03:53:20.528Z,0.00
2018-09-18T03:54:20.503Z,0.00
2018-09-18T03:55:20.476Z,0.00
2018-09-18T03:56:20.451Z,0.00
2018-09-18T03:57:20.423Z,0.00
2018-09-18T03:58:20.399Z,0.00
2018-09-18T03:59:20.372Z,0.00
2018-09-18T04:00:20.345Z,0.00
2018-09-18T04:01:20.316Z,0.00
2018-09-18T04:02:20.291Z,0.00
2018-09-18T04:03:20.415Z,0.00
2018-09-18T04:04:20.238Z,0.00
2018-09-18T04:05:20.211Z,0.00
2018-09-18T04:06:20.185Z,0.00
2018-09-18T04:07:20.159Z,0.00
2018-09-18T04:08:20.138Z,0.00
2018-09-18T04:09:20.105Z,0.00
2018-09-18T04:10:20.078Z,0.00
2018-09-18T04:11:20.054Z,0.00
2018-09-18T04:12:20.026Z,0.00
2018-09-18T04:13:19.999Z,0.00
2018-09-18T04:14:19.973Z,0.00
2018-09-18T04:15:19.958Z,0.00
2018-09-18T04:16:19.920Z,0.00
2018-09-18T04:17:19.967Z,0.00
2018-09-18T04:18:19.915Z,0.00
2018-09-18T04:19:19.841Z,0.00
2018-09-18T04:20:19.813Z,0.00
2018-09-18T04:21:19.787Z,0.00
2018-09-18T04:22:19.761Z,0.00
2018-09-18T04:23:19.738Z,4.00
2018-09-18T04:24:19.719Z,4.00
2018-09-18T04:25:19.681Z,4.00
2018-09-18T04:26:19.655Z,4.00
2018-09-18T04:27:19.629Z,4.00
2018-09-18T04:28:19.602Z,8.00
2018-09-18T04:29:19.574Z,4.00
2018-09-18T04:30:19.551Z,8.00
2018-09-18T04:31:19.523Z,8.00
2018-09-18T04:32:19.496Z,12.00
2018-09-18T04:33:19.468Z,12.00
2018-09-18T04:34:19.457Z,16.00
2018-09-18T04:35:19.417Z,20.00
2018-09-18T04:36:19.389Z,24.00
2018-09-18T04:37:19.512Z,28.00
2018-09-18T04:38:19.336Z,32.00
2018-09-18T04:39:19.310Z,36.00
2018-09-18T04:40:19.284Z,44.00
2018-09-18T04:41:19.256Z,52.00
2018-09-18T04:42:19.230Z,60.00
2018-09-18T04:43:19.214Z,72.00
2018-09-18T04:44:19.176Z,80.00
2018-09-18T04:45:19.148Z,96.00
2018-09-18T04:46:19.123Z,108.00
2018-09-18T04:47:19.098Z,124.00
2018-09-18T04:48:19.071Z,140.00
2018-09-18T04:49:19.043Z,160.00
2018-09-18T04:50:19.017Z,180.00
2018-09-18T04:51:18.991Z,200.00
2018-09-18T04:52:18.968Z,228.00
2018-09-18T04:53:18.937Z,248.00
2018-09-18T04:54:18.911Z,276.00
2018-09-18T04:55:18.883Z,308.00
2018-09-18T04:56:18.858Z,336.00
2018-09-18T04:57:18.830Z,372.00
2018-09-18T04:58:18.805Z,408.00
2018-09-18T04:59:18.777Z,448.00
2018-09-18T05:00:18.751Z,492.00
2018-09-18T05:01:18.723Z,532.00
2018-09-18T05:02:18.698Z,588.00
2018-09-18T05:03:18.671Z,640.00
2018-09-18T05:04:18.649Z,704.00
2018-09-18T05:05:18.622Z,772.00
2018-09-18T05:06:18.590Z,848.00
2018-09-18T05:07:18.566Z,932.00
2018-09-18T05:08:18.538Z,1020.00
2018-09-18T05:09:18.555Z,1108.00
2018-09-18T05:10:18.484Z,1196.00
2018-09-18T05:11:18.458Z,1292.00
2018-09-18T05:12:18.432Z,1388.00
2018-09-18T05:13:18.404Z,1492.00
2018-09-18T05:14:18.378Z,1596.00
2018-09-18T05:15:18.356Z,1720.00
2018-09-18T05:16:18.328Z,1868.00
2018-09-18T05:17:18.298Z,2028.00
2018-09-18T05:18:18.280Z,2152.00
2018-09-18T05:19:18.247Z,2244.00
2018-09-18T05:20:18.222Z,2312.00
2018-09-18T05:21:18.192Z,2392.00
2018-09-18T05:22:18.165Z,2480.00
2018-09-18T05:23:18.139Z,2564.00
2018-09-18T05:24:18.112Z,2644.00
2018-09-18T05:25:18.287Z,2732.00
2018-09-18T05:26:18.060Z,2888.00
2018-09-18T05:27:18.035Z,3016.00
2018-09-18T05:28:18.009Z,3176.00
2018-09-18T05:29:17.982Z,3388.00
2018-09-18T05:30:17.956Z,3412.00
2018-09-18T05:31:17.935Z,3316.00
2018-09-18T05:32:18.131Z,3252.00
2018-09-18T05:33:17.880Z,3352.00
2018-09-18T05:34:17.851Z,3412.00
2018-09-18T05:35:17.826Z,3372.00
2018-09-18T05:36:17.800Z,3432.00
2018-09-18T05:37:17.773Z,3540.00
2018-09-18T05:38:17.746Z,3724.00
2018-09-18T05:39:17.727Z,3948.00
2018-09-18T05:40:17.700Z,4112.00
2018-09-18T05:41:17.668Z,4224.00
2018-09-18T05:42:17.644Z,4588.00
2018-09-18T05:43:17.618Z,4916.00
2018-09-18T05:44:17.593Z,5024.00
2018-09-18T05:45:17.566Z,5196.00
2018-09-18T05:46:17.542Z,5392.00
2018-09-18T05:47:17.515Z,5708.00
2018-09-18T05:48:17.642Z,6040.00
2018-09-18T05:49:17.464Z,6380.00
2018-09-18T05:50:17.640Z,6940.00
2018-09-18T05:51:17.615Z,7236.00
2018-09-18T05:52:17.387Z,7308.00
2018-09-18T05:53:17.563Z,7452.00
2018-09-18T05:54:17.335Z,7684.00
2018-09-18T05:55:17.310Z,7772.00
2018-09-18T05:56:17.489Z,7976.00
2018-09-18T05:57:17.258Z,8444.00
2018-09-18T05:58:17.234Z,8804.00
2018-09-18T05:59:17.411Z,8920.00
2018-09-18T06:00:17.185Z,8684.00
2018-09-18T06:01:17.159Z,8196.00
2018-09-18T06:02:17.176Z,8100.00
2018-09-18T06:03:17.108Z,7948.00
2018-09-18T06:04:17.082Z,7780.00
2018-09-18T06:05:17.057Z,7604.00
2018-09-18T06:06:17.032Z,9048.00
2018-09-18T06:07:17.009Z,10320.00
2018-09-18T06:08:16.984Z,10264.00
2018-09-18T06:09:16.959Z,10688.00
2018-09-18T06:10:16.936Z,11320.00
2018-09-18T06:11:16.908Z,12004.00
2018-09-18T06:12:16.890Z,13028.00
2018-09-18T06:13:16.860Z,13460.00
2018-09-18T06:14:16.834Z,13308.00
2018-09-18T06:15:16.810Z,14140.00
2018-09-18T06:16:16.785Z,14476.00
2018-09-18T06:17:16.761Z,14424.00
2018-09-18T06:18:16.738Z,13580.00
2018-09-18T06:19:16.889Z,13612.00
2018-09-18T06:20:16.697Z,13020.00
2018-09-18T06:21:16.662Z,13276.00
2018-09-18T06:22:16.638Z,13236.00
2018-09-18T06:23:17.115Z,14260.00
2018-09-18T06:24:16.591Z,14792.00
2018-09-18T06:25:16.566Z,16084.00
2018-09-18T06:26:16.608Z,16200.00
2018-09-18T06:27:16.518Z,14692.00
2018-09-18T06:28:16.498Z,13008.00
2018-09-18T06:29:16.473Z,13624.00
2018-09-18T06:30:16.445Z,13532.00
2018-09-18T06:31:16.421Z,15976.00
2018-09-18T06:32:16.397Z,21344.00
2018-09-18T06:33:16.371Z,21792.00
2018-09-18T06:34:16.349Z,22752.00
2018-09-18T06:35:16.528Z,21728.00
2018-09-18T06:36:16.303Z,21568.00
2018-09-18T06:37:16.277Z,23168.00
2018-09-18T06:38:16.253Z,25024.00
2018-09-18T06:39:16.432Z,27008.00
2018-09-18T06:40:16.207Z,27616.00
2018-09-18T06:41:16.690Z,28416.00
2018-09-18T06:42:16.208Z,29216.00
2018-09-18T06:43:16.338Z,29120.00
2018-09-18T06:44:16.114Z,29792.00
2018-09-18T06:45:16.090Z,31232.00
2018-09-18T06:46:16.269Z,30816.00
2018-09-18T06:47:16.043Z,29216.00
2018-09-18T06:48:16.225Z,29824.00
2018-09-18T06:49:16.003Z,30848.00
2018-09-18T06:50:15.974Z,31104.00
2018-09-18T06:52:01.337Z,29408.00
2018-09-18T06:52:58.932Z,29056.00
2018-09-18T06:53:58.261Z,26656.00
2018-09-18T06:55:40.392Z,28512.00
2018-09-18T06:56:40.169Z,32032.00
2018-09-18T06:58:22.500Z,24736.00
2018-09-18T06:59:22.276Z,24864.00
2018-09-18T07:00:22.254Z,26272.00
2018-09-18T07:01:22.233Z,27808.00
2018-09-18T07:02:22.212Z,27616.00
2018-09-18T07:03:22.389Z,28000.00
2018-09-18T07:04:22.367Z,27008.00
2018-09-18T07:05:22.143Z,30784.00
2018-09-18T07:06:22.122Z,30144.00
2018-09-18T07:07:22.099Z,28320.00
2018-09-18T07:08:22.080Z,28928.00
2018-09-18T07:09:22.073Z,27200.00
2018-09-18T07:15:59.461Z,32000.00
2018-09-18T07:16:59.439Z,34080.00
2018-09-18T07:17:59.469Z,34176.00
2018-09-18T07:18:59.395Z,33184.00
2018-09-18T07:19:59.374Z,31264.00
2018-09-18T07:20:59.351Z,32256.00
2018-09-18T07:21:59.128Z,32704.00
2018-09-18T07:22:59.308Z,29184.00
2018-09-18T07:23:59.086Z,28256.00
2018-09-18T07:24:59.287Z,26592.00
2018-09-18T07:26:41.420Z,24672.00
2018-09-18T07:27:41.381Z,23936.00
2018-09-18T07:30:48.021Z,21088.00
2018-09-18T07:37:29.849Z,32448.00
2018-09-18T07:40:11.964Z,35264.00
2018-09-18T07:42:11.721Z,36896.00
2018-09-18T07:43:11.701Z,38496.00
2018-09-18T07:49:03.088Z,43616.00
2018-09-18T07:50:00.241Z,43328.00
2018-09-18T07:51:00.421Z,44736.00
2018-09-18T07:52:00.201Z,43552.00
2018-09-18T07:53:00.383Z,43360.00
2018-09-18T07:54:00.361Z,42976.00
2018-09-18T07:55:00.342Z,45024.00
2018-09-18T07:56:00.330Z,45152.00
2018-09-18T07:57:00.554Z,44064.00
2018-09-18T07:58:00.082Z,43456.00
2018-09-18T07:59:42.425Z,46656.00
2018-09-18T08:00:42.207Z,46400.00
2018-09-18T08:02:24.538Z,47264.00
2018-09-18T08:03:24.317Z,47808.00
2018-09-18T08:05:06.656Z,48896.00
2018-09-18T08:06:06.436Z,49056.00
2018-09-18T08:07:06.423Z,49952.00
2018-09-18T08:08:06.400Z,51904.00
2018-09-18T08:09:06.380Z,50688.00
2018-09-18T08:10:06.563Z,52480.00
2018-09-18T08:11:06.545Z,53760.00
2018-09-18T08:12:06.328Z,52544.00
2018-09-18T08:13:06.307Z,51744.00
2018-09-18T08:14:06.590Z,51328.00
2018-09-18T08:15:06.478Z,50208.00
2018-09-18T08:16:06.462Z,52800.00
2018-09-18T08:17:06.437Z,53568.00
2018-09-18T08:18:06.419Z,53376.00
2018-09-18T08:19:06.466Z,52224.00
2018-09-18T08:20:06.383Z,51968.00
2018-09-18T08:21:06.163Z,51712.00
2018-09-18T08:22:06.363Z,50656.00
2018-09-18T08:23:06.132Z,51488.00
2018-09-18T08:24:06.110Z,51616.00
2018-09-18T08:25:06.098Z,51072.00
2018-09-18T08:26:06.277Z,50176.00
2018-09-18T08:27:06.264Z,47872.00
2018-09-18T08:28:06.243Z,47936.00
2018-09-18T08:29:06.024Z,48384.00
2018-09-18T08:30:06.009Z,48832.00
2018-09-18T08:31:05.997Z,48320.00
2018-09-18T08:32:05.974Z,48288.00
2018-09-18T08:33:06.224Z,48288.00
2018-09-18T08:34:06.140Z,48032.00
2018-09-18T08:35:06.124Z,48800.00
2018-09-18T08:36:06.106Z,49024.00
2018-09-18T08:37:06.098Z,48384.00
2018-09-18T08:38:05.872Z,44704.00
2018-09-18T08:39:06.092Z,43776.00
2018-09-18T08:40:05.929Z,35360.00
2018-09-18T08:41:05.820Z,41696.00
2018-09-18T08:42:05.803Z,45408.00
2018-09-18T08:43:05.998Z,48608.00
2018-09-18T08:44:05.774Z,49952.00
2018-09-18T08:45:05.957Z,48256.00
2018-09-18T08:46:05.990Z,48192.00
2018-09-18T08:47:05.936Z,49120.00
2018-09-18T08:48:05.727Z,49376.00
2018-09-18T08:49:05.894Z,49536.00
2018-09-18T08:50:05.879Z,48096.00
2018-09-18T08:51:05.678Z,48864.00
2018-09-18T08:52:05.902Z,52000.00
2018-09-18T08:53:05.847Z,51040.00
2018-09-18T08:54:06.021Z,51616.00
2018-09-18T08:55:05.795Z,51264.00
2018-09-18T08:56:05.781Z,52544.00
2018-09-18T08:57:05.760Z,52992.00
2018-09-18T08:58:05.742Z,54016.00
2018-09-18T08:59:08.352Z,53600.00
2018-09-18T09:00:05.709Z,54848.00
2018-09-18T09:01:05.721Z,56064.00
2018-09-18T09:02:05.702Z,55104.00
2018-09-18T09:03:05.691Z,53056.00
2018-09-18T09:04:05.659Z,52768.00
2018-09-18T09:07:12.104Z,55776.00
2018-09-18T09:08:54.398Z,56256.00
2018-09-18T09:38:00.540Z,69856.00
2018-09-18T09:39:00.324Z,70688.00
2018-09-18T09:40:00.517Z,73152.00
2018-09-18T09:41:00.494Z,73184.00
2018-09-18T09:42:00.483Z,70912.00
2018-09-18T09:43:42.626Z,71232.00
2018-09-18T09:44:42.606Z,68384.00
2018-09-18T09:45:42.593Z,68768.00
2018-09-18T09:46:42.576Z,72160.00
2018-09-18T09:47:42.359Z,73408.00
2018-09-18T09:48:42.547Z,72800.00
2018-09-18T09:49:42.540Z,75168.00
2018-09-18T09:50:42.519Z,76832.00
2018-09-18T09:52:24.666Z,75680.00
2018-09-18T09:53:24.453Z,77600.00
2018-09-18T09:54:24.633Z,78144.00
2018-09-18T09:55:24.920Z,78176.00
2018-09-18T09:56:24.606Z,78880.00
2018-09-18T09:57:24.589Z,78912.00
2018-09-18T09:59:06.736Z,78176.00
2018-09-18T10:00:06.720Z,78176.00
2018-09-18T10:01:06.511Z,79360.00
2018-09-18T10:02:06.490Z,79680.00
2018-09-18T10:03:06.682Z,76736.00
2018-09-18T10:04:06.460Z,77472.00
2018-09-18T10:05:06.649Z,81920.00
2018-09-18T10:06:06.435Z,81216.00
2018-09-18T10:07:06.621Z,80192.00
2018-09-18T12:15:59.639Z,74976.00
2018-09-18T12:16:59.478Z,75456.00
2018-09-18T12:18:41.773Z,70624.00
2018-09-18T12:20:23.915Z,76128.00
2018-09-18T12:21:23.901Z,77184.00
2018-09-18T12:22:26.543Z,79488.00
2018-09-18T12:23:23.874Z,79392.00
2018-09-18T12:24:23.860Z,77632.00
2018-09-18T12:25:23.846Z,77536.00
2018-09-18T12:27:48.246Z,72288.00
2018-09-18T12:28:48.214Z,73568.00
2018-09-18T12:31:54.607Z,80256.00
2018-09-18T12:37:07.548Z,68256.00
2018-09-18T12:44:26.969Z,59776.00
2018-09-18T12:45:26.955Z,55104.00
2018-09-18T12:46:26.732Z,51904.00
2018-09-18T12:47:26.720Z,51104.00
2018-09-18T12:48:26.708Z,51808.00
2018-09-18T12:49:27.273Z,49760.00
2018-09-18T12:50:26.926Z,46304.00
2018-09-18T12:51:26.864Z,42880.00
2018-09-18T12:52:26.852Z,41280.00
2018-09-18T12:53:26.634Z,42272.00
2018-09-18T12:54:26.821Z,43008.00
2018-09-18T12:55:26.809Z,45440.00
2018-09-18T12:56:26.795Z,47776.00
2018-09-18T12:57:26.629Z,49920.00
2018-09-18T12:58:26.595Z,61312.00
2018-09-18T12:59:26.937Z,66560.00
2018-09-18T13:00:26.536Z,64192.00
2018-09-18T13:01:26.521Z,74208.00
2018-09-18T13:02:26.687Z,93376.00
2018-09-18T13:03:26.493Z,96832.00
2018-09-18T13:04:26.681Z,79040.00
2018-09-18T13:05:26.679Z,76288.00
2018-09-18T13:06:26.846Z,74240.00
2018-09-18T13:07:26.680Z,77952.00
2018-09-18T13:08:26.427Z,86144.00
2018-09-18T13:09:26.410Z,81696.00
2018-09-18T13:10:26.397Z,75424.00
2018-09-18T13:11:26.382Z,74016.00
2018-09-18T13:12:26.378Z,72288.00
2018-09-18T13:13:26.357Z,74176.00
2018-09-18T13:14:26.344Z,72480.00
2018-09-18T13:15:26.551Z,70400.00
2018-09-18T13:16:26.517Z,73280.00
2018-09-18T13:17:26.522Z,41632.00
2018-09-18T13:18:26.289Z,19456.00
2018-09-18T13:19:29.700Z,23776.00
2018-09-18T13:20:26.257Z,56736.00
2018-09-18T13:21:26.240Z,75360.00
2018-09-18T13:22:26.226Z,76736.00
2018-09-18T13:23:26.215Z,77984.00
2018-09-18T13:24:26.198Z,78048.00
2018-09-18T13:25:26.385Z,76928.00
2018-09-18T13:26:26.168Z,73472.00
2018-09-18T13:27:26.159Z,72224.00
2018-09-18T13:28:28.968Z,69952.00
2018-09-18T13:29:26.327Z,71552.00
2018-09-18T13:30:26.120Z,74176.00
2018-09-18T13:31:26.101Z,72896.00
2018-09-18T13:38:45.717Z,63872.00
2018-09-18T13:40:27.861Z,62016.00
2018-09-18T13:41:27.663Z,59616.00
2018-09-18T13:42:27.648Z,61376.00
2018-09-18T13:43:27.615Z,63360.00
2018-09-18T13:44:27.607Z,61600.00
2018-09-18T13:45:27.586Z,61344.00
2018-09-18T13:46:27.617Z,63040.00
2018-09-18T13:47:27.557Z,60320.00
2018-09-18T13:49:09.928Z,59872.00
2018-09-18T13:50:09.932Z,60608.00
2018-09-18T13:51:09.876Z,60352.00
2018-09-18T13:52:09.873Z,57920.00
2018-09-18T13:53:09.848Z,57920.00
2018-09-18T13:54:09.832Z,63296.00
2018-09-18T13:55:09.617Z,62720.00
2018-09-18T13:56:09.693Z,55584.00
2018-09-18T13:57:09.596Z,54048.00
2018-09-18T13:58:09.579Z,57408.00
2018-09-18T13:59:09.560Z,58464.00
2018-09-18T14:00:09.546Z,59680.00
2018-09-18T14:01:09.610Z,58656.00
2018-09-18T14:02:09.558Z,60832.00
2018-09-18T14:03:09.502Z,61088.00
2018-09-18T14:04:09.508Z,62144.00
2018-09-18T14:05:09.489Z,64128.00
2018-09-18T14:06:09.460Z,62016.00
2018-09-18T14:07:09.446Z,62944.00
2018-09-18T14:08:09.451Z,59968.00
2018-09-18T14:09:09.535Z,56896.00
2018-09-18T14:10:09.600Z,57568.00
2018-09-18T14:11:09.389Z,60384.00
2018-09-18T14:12:51.732Z,58016.00
2018-09-18T14:13:51.516Z,57376.00
2018-09-18T14:14:51.780Z,56384.00
2018-09-18T14:15:51.487Z,57376.00
2018-09-18T14:16:51.474Z,55488.00
2018-09-18T14:17:51.660Z,54528.00
2018-09-18T14:18:51.645Z,57408.00
2018-09-18T14:19:51.678Z,56288.00
2018-09-18T14:20:51.415Z,53344.00
2018-09-18T14:21:51.399Z,55264.00
2018-09-18T14:22:51.385Z,54528.00
2018-09-18T14:23:51.375Z,54176.00
2018-09-18T14:24:52.261Z,52384.00
2018-09-18T14:25:51.350Z,51712.00
2018-09-18T14:26:51.327Z,52288.00
2018-09-18T14:27:51.314Z,51680.00
2018-09-18T14:28:51.905Z,50848.00
2018-09-18T14:29:51.485Z,50944.00
2018-09-18T14:30:51.472Z,50720.00
2018-09-18T14:31:51.456Z,51776.00
2018-09-18T14:32:51.441Z,50080.00
2018-09-18T14:33:51.428Z,49280.00
2018-09-18T14:34:51.467Z,49248.00
2018-09-18T14:35:51.396Z,48544.00
2018-09-18T14:36:51.182Z,49024.00
2018-09-18T14:37:51.175Z,47936.00
2018-09-18T14:38:51.350Z,47744.00
2018-09-18T14:39:51.335Z,47552.00
2018-09-18T14:40:51.117Z,46464.00
2018-09-18T14:41:51.106Z,45856.00
2018-09-18T14:42:51.087Z,44992.00
2018-09-18T14:43:51.072Z,44832.00
2018-09-18T14:44:51.057Z,43616.00
2018-09-18T14:45:51.090Z,42688.00
2018-09-18T14:46:51.046Z,44480.00
2018-09-18T14:47:51.085Z,44352.00
2018-09-18T14:48:50.998Z,44448.00
2018-09-18T14:49:50.980Z,44064.00
2018-09-18T14:50:50.964Z,42368.00
2018-09-18T14:51:50.955Z,42496.00
2018-09-18T14:52:50.936Z,42880.00
2018-09-18T14:53:50.918Z,42048.00
2018-09-18T14:55:33.263Z,44128.00
2018-09-18T14:56:33.049Z,43872.00
2018-09-18T14:57:33.038Z,42496.00
2018-09-18T14:58:33.217Z,41728.00
2018-09-18T14:59:33.003Z,41856.00
2018-09-18T15:00:32.987Z,40448.00
2018-09-18T15:01:32.969Z,39744.00
2018-09-18T15:02:32.953Z,39808.00
2018-09-18T15:03:33.140Z,38880.00
2018-09-18T15:04:32.923Z,39456.00
2018-09-18T15:05:32.906Z,39232.00
2018-09-18T15:06:32.891Z,38400.00
2018-09-18T15:07:32.879Z,38016.00
2018-09-18T15:08:33.073Z,37696.00
2018-09-18T15:09:32.844Z,36864.00
2018-09-18T15:10:32.843Z,35744.00
2018-09-18T15:11:32.814Z,36064.00
2018-09-18T15:12:33.004Z,35872.00
2018-09-18T15:13:32.782Z,34400.00
2018-09-18T15:14:32.783Z,34624.00
2018-09-18T15:15:32.761Z,33760.00
2018-09-18T15:16:32.735Z,32992.00
2018-09-18T15:17:32.720Z,32992.00
2018-09-18T15:18:32.907Z,32192.00
2018-09-18T15:19:32.692Z,32768.00
2018-09-18T15:20:32.674Z,32288.00
2018-09-18T15:21:32.913Z,32192.00
2018-09-18T15:22:32.642Z,31040.00
2018-09-18T15:23:32.829Z,29984.00
2018-09-18T15:24:32.617Z,30944.00
2018-09-18T15:25:32.797Z,30528.00
2018-09-18T15:26:32.782Z,28768.00
2018-09-18T15:27:32.630Z,29024.00
2018-09-18T15:28:32.547Z,30144.00
2018-09-18T15:29:32.532Z,30528.00
2018-09-18T15:30:32.516Z,30336.00
2018-09-18T15:31:32.500Z,29216.00
2018-09-18T15:32:32.484Z,29728.00
2018-09-18T15:33:32.482Z,29824.00
2018-09-18T15:34:32.460Z,28864.00
2018-09-18T15:35:32.642Z,28288.00
2018-09-18T15:36:32.421Z,28096.00
2018-09-18T15:37:32.406Z,27616.00
2018-09-18T15:38:32.393Z,27584.00
2018-09-18T15:39:32.464Z,26752.00
2018-09-18T15:40:32.357Z,26272.00
2018-09-18T15:41:32.347Z,25536.00
2018-09-18T15:42:32.528Z,25024.00
2018-09-18T15:43:32.312Z,25152.00
2018-09-18T15:44:32.297Z,24480.00
2018-09-18T15:45:32.335Z,23296.00
2018-09-18T15:46:32.266Z,23040.00
2018-09-18T15:47:32.247Z,23200.00
2018-09-18T15:48:32.479Z,22112.00
2018-09-18T15:49:32.215Z,21792.00
2018-09-18T15:50:32.200Z,21376.00
2018-09-18T15:51:32.264Z,20768.00
2018-09-18T15:52:32.369Z,20512.00
2018-09-18T15:53:32.354Z,20032.00
2018-09-18T15:54:32.139Z,19648.00
2018-09-18T15:55:32.135Z,19456.00
2018-09-18T15:56:32.103Z,18944.00
2018-09-18T15:57:32.092Z,18528.00
2018-09-18T15:58:32.074Z,18240.00
2018-09-18T15:59:32.065Z,17920.00
2018-09-18T16:00:35.469Z,17760.00
2018-09-18T16:01:32.295Z,17536.00
2018-09-18T16:02:32.210Z,17568.00